createdAt,value
2022-09-15T00:04:20.784Z,14.20
2022-09-15T00:09:26.049Z,17.97
2022-09-15T00:14:31.499Z,20.40
2022-09-15T00:19:36.802Z,20.53
2022-09-15T00:24:42.305Z,17.87
2022-09-15T00:29:48.548Z,17.57
2022-09-15T00:34:53.902Z,20.43
2022-09-15T00:39:59.380Z,17.03
2022-09-15T00:45:07.540Z,19.10
2022-09-15T00:50:21.674Z,15.63
2022-09-15T00:55:36.152Z,25.03
2022-09-15T01:00:44.405Z,19.17
2022-09-15T01:05:54.785Z,16.97
2022-09-15T01:11:02.991Z,17.67
2022-09-15T01:21:59.113Z,22.70
2022-09-15T01:27:37.610Z,26.33
2022-09-15T01:32:56.406Z,22.33
2022-09-15T01:38:19.771Z,21.67
2022-09-15T01:43:27.933Z,18.77
2022-09-15T01:48:35.228Z,20.27
2022-09-15T01:53:41.741Z,19.07
2022-09-15T01:58:48.599Z,26.13
2022-09-15T02:04:06.023Z,16.03
2022-09-15T02:09:20.432Z,19.67
2022-09-15T02:14:33.415Z,28.70
2022-09-15T02:19:42.206Z,23.43
2022-09-15T02:24:51.567Z,19.70
2022-09-15T02:29:59.824Z,17.83
2022-09-15T02:35:08.219Z,19.57
2022-09-15T02:40:14.274Z,22.50
2022-09-15T02:45:20.645Z,15.67
2022-09-15T02:50:26.840Z,16.23
2022-09-15T02:55:32.268Z,21.17
2022-09-15T03:00:39.333Z,15.73
2022-09-15T03:05:45.132Z,18.17
2022-09-15T03:10:50.727Z,19.03
2022-09-15T03:15:56.016Z,17.77
2022-09-15T03:21:02.530Z,18.67
2022-09-15T03:26:09.535Z,16.03
2022-09-15T03:31:14.950Z,17.40
2022-09-15T03:36:20.291Z,20.97
2022-09-15T03:41:28.407Z,17.87
2022-09-15T03:46:33.964Z,24.30
2022-09-15T03:51:39.210Z,23.93
2022-09-15T03:56:46.658Z,23.57
2022-09-15T04:01:53.126Z,24.90
2022-09-15T04:06:58.511Z,22.20
2022-09-15T04:12:04.883Z,16.23
2022-09-15T04:17:11.900Z,12.23
2022-09-15T04:22:25.239Z,12.23
2022-09-15T04:27:41.959Z,14.80
2022-09-15T04:32:50.407Z,17.03
2022-09-15T04:37:55.692Z,12.33
2022-09-15T04:43:01.418Z,14.57
2022-09-15T04:48:06.871Z,16.50
2022-09-15T04:53:14.751Z,14.07
2022-09-15T04:58:20.634Z,14.17
2022-09-15T05:03:27.001Z,12.27
2022-09-15T05:08:32.443Z,15.47
2022-09-15T05:13:39.161Z,12.03
2022-09-15T05:18:47.206Z,15.20
2022-09-15T05:23:55.996Z,14.50
2022-09-15T05:29:01.332Z,26.83
2022-09-15T05:34:07.391Z,16.33
2022-09-15T05:39:14.288Z,20.83
2022-09-15T05:44:21.715Z,37.40
2022-09-15T05:49:26.999Z,22.17
2022-09-15T05:54:33.367Z,26.90
2022-09-15T05:59:42.416Z,16.53
2022-09-15T06:04:47.840Z,23.00
2022-09-15T06:09:53.287Z,23.27
2022-09-15T06:15:00.597Z,26.47
2022-09-15T06:20:07.642Z,23.50
2022-09-15T06:25:13.761Z,14.53
2022-09-15T06:30:19.529Z,16.10
2022-09-15T06:35:24.868Z,14.37
2022-09-15T06:40:31.168Z,10.30
2022-09-15T06:45:36.748Z,13.67
2022-09-15T06:50:42.181Z,20.80
2022-09-15T06:55:47.705Z,18.10
2022-09-15T07:00:54.595Z,7.63
2022-09-15T07:06:00.195Z,13.00
2022-09-15T07:11:06.375Z,9.53
2022-09-15T07:16:14.179Z,6.63
2022-09-15T07:21:21.847Z,6.33
2022-09-15T07:26:31.601Z,10.13
2022-09-15T07:31:39.195Z,5.30
2022-09-15T07:36:47.954Z,6.23
2022-09-15T07:41:54.084Z,4.43
2022-09-15T07:46:59.586Z,6.30
2022-09-15T07:52:05.460Z,3.33
2022-09-15T07:57:11.029Z,3.90
2022-09-15T08:02:21.065Z,4.90
2022-09-15T08:07:33.289Z,4.93
2022-09-15T08:12:40.406Z,1.57
2022-09-15T08:17:47.084Z,3.60
2022-09-15T08:22:57.236Z,5.00
2022-09-15T08:28:08.217Z,6.57
2022-09-15T08:33:41.977Z,5.57
2022-09-15T08:38:58.760Z,3.43
2022-09-15T08:44:44.182Z,1.97
2022-09-15T08:50:34.604Z,10.40
2022-09-15T08:55:49.870Z,5.17
2022-09-15T09:01:10.203Z,7.90
2022-09-15T09:06:22.708Z,4.67
2022-09-15T09:17:40.795Z,3.63
2022-09-15T09:23:07.147Z,3.53
2022-09-15T09:28:33.728Z,2.75
2022-09-15T09:33:48.517Z,3.87
2022-09-15T09:39:05.962Z,5.53
2022-09-15T09:44:18.431Z,6.90
2022-09-15T09:49:31.270Z,6.33
2022-09-15T09:54:37.693Z,7.00
2022-09-15T09:59:51.996Z,3.62
2022-09-15T10:05:08.370Z,2.70
2022-09-15T10:10:25.403Z,11.40
2022-09-15T10:15:37.352Z,4.07
2022-09-15T10:20:51.244Z,2.77
2022-09-15T10:26:00.514Z,1.97
2022-09-15T10:31:13.556Z,3.07
2022-09-15T10:36:32.771Z,3.03
2022-09-15T10:41:40.961Z,2.47
2022-09-15T10:47:05.940Z,9.47
2022-09-15T10:52:16.914Z,2.90
2022-09-15T11:02:42.061Z,5.27
2022-09-15T11:08:09.012Z,8.23
2022-09-15T11:13:17.423Z,2.07
2022-09-15T11:18:34.743Z,4.00
2022-09-15T11:23:52.042Z,4.00
2022-09-15T11:29:06.143Z,4.30
2022-09-15T11:34:26.482Z,3.97
2022-09-15T11:39:39.103Z,4.53
2022-09-15T11:44:48.804Z,1.87
2022-09-15T11:50:03.020Z,4.43
2022-09-15T11:55:38.491Z,3.53
2022-09-15T12:00:50.555Z,2.13
2022-09-15T12:06:13.527Z,1.43
2022-09-15T12:11:22.883Z,1.17
2022-09-15T12:16:29.260Z,1.60
2022-09-15T12:21:48.906Z,2.93
2022-09-15T12:26:54.215Z,2.13
2022-09-15T12:32:20.532Z,3.17
2022-09-15T12:37:28.843Z,4.07
2022-09-15T12:42:36.275Z,2.37
2022-09-15T12:47:58.574Z,3.23
2022-09-15T12:53:06.905Z,2.30
2022-09-15T12:58:18.858Z,3.73
2022-09-15T13:03:41.891Z,2.33
2022-09-15T13:09:10.081Z,3.27
2022-09-15T13:14:36.574Z,3.20
2022-09-15T13:20:15.372Z,3.27
2022-09-15T13:25:24.568Z,2.10
2022-09-15T13:32:41.379Z,2.90
2022-09-15T13:42:07.569Z,4.63
2022-09-15T13:47:26.160Z,1.20
2022-09-15T13:53:13.286Z,3.23
2022-09-15T14:03:53.405Z,1.40
2022-09-15T14:09:05.647Z,2.90
2022-09-15T14:14:13.882Z,4.03
2022-09-15T14:19:41.510Z,1.13
2022-09-15T14:24:47.501Z,1.33
2022-09-15T14:29:55.842Z,1.37
2022-09-15T14:35:03.520Z,6.03
2022-09-15T14:40:29.662Z,8.17
2022-09-15T14:50:55.100Z,3.60
2022-09-15T14:56:08.302Z,1.13
2022-09-15T15:01:38.982Z,2.30
2022-09-15T15:07:10.714Z,2.33
2022-09-15T15:12:41.166Z,3.13
2022-09-15T15:34:51.716Z,5.00
2022-09-15T15:40:04.614Z,4.03
2022-09-15T15:45:31.407Z,5.67
2022-09-15T15:50:36.923Z,6.97
2022-09-15T15:58:29.595Z,4.60
2022-09-15T16:03:35.530Z,6.70
2022-09-15T16:08:43.869Z,4.93
2022-09-15T16:13:49.026Z,8.37
2022-09-15T16:18:56.395Z,9.30
2022-09-15T16:24:03.214Z,7.00
2022-09-15T16:29:08.766Z,6.07
2022-09-15T16:40:11.267Z,7.93
2022-09-15T16:56:10.052Z,6.07
2022-09-15T17:01:25.631Z,7.13
2022-09-15T17:06:31.314Z,4.73
2022-09-15T17:11:38.400Z,8.60
2022-09-15T17:16:45.257Z,6.70
2022-09-15T17:21:52.882Z,3.27
2022-09-15T17:26:58.339Z,6.57
2022-09-15T17:32:03.702Z,7.83
2022-09-15T17:37:09.053Z,8.43
2022-09-15T17:42:15.232Z,6.13
2022-09-15T17:47:22.137Z,6.23
2022-09-15T17:52:28.812Z,6.00
2022-09-15T17:57:34.271Z,3.90
2022-09-15T18:02:44.048Z,4.73
2022-09-15T18:07:50.847Z,3.13
2022-09-15T18:12:58.518Z,2.77
2022-09-15T18:18:08.878Z,2.93
2022-09-15T18:23:17.427Z,6.70
2022-09-15T18:28:25.607Z,11.10
2022-09-15T18:33:31.908Z,5.30
2022-09-15T18:38:37.232Z,5.27
2022-09-15T18:43:43.977Z,8.10
2022-09-15T18:48:50.907Z,9.67
2022-09-15T18:53:58.313Z,8.93
2022-09-15T18:59:03.663Z,4.23
2022-09-15T19:04:09.642Z,3.67
2022-09-15T19:09:19.733Z,13.30
2022-09-15T19:14:25.249Z,5.80
2022-09-15T19:19:30.687Z,11.40
2022-09-15T19:24:45.996Z,14.87
2022-09-15T19:29:51.921Z,14.40
2022-09-15T19:34:59.386Z,22.50
2022-09-15T19:40:08.731Z,20.33
2022-09-15T19:45:14.658Z,20.50
2022-09-15T19:50:20.471Z,23.77
2022-09-15T19:55:27.388Z,23.37
2022-09-15T20:00:32.891Z,28.13
2022-09-15T20:05:38.477Z,18.17
2022-09-15T20:10:46.049Z,15.43
2022-09-15T20:16:04.542Z,18.73
2022-09-15T20:21:17.994Z,12.47
2022-09-15T20:26:19.923Z,9.30
2022-09-15T20:31:26.721Z,8.97
2022-09-15T20:36:35.733Z,5.90
2022-09-15T20:41:42.450Z,6.97
2022-09-15T20:46:47.770Z,10.97
2022-09-15T20:51:54.649Z,14.57
2022-09-15T20:57:00.717Z,10.03
2022-09-15T21:02:07.595Z,5.97
2022-09-15T21:07:13.032Z,8.83
2022-09-15T21:12:18.417Z,19.47
2022-09-15T21:17:23.667Z,18.30
2022-09-15T21:22:28.860Z,9.87
2022-09-15T21:27:34.867Z,12.10
2022-09-15T21:32:40.374Z,10.87
2022-09-15T21:37:45.812Z,16.33
2022-09-15T21:42:51.528Z,16.30
2022-09-15T21:47:57.402Z,7.50
2022-09-15T21:53:02.851Z,10.00
2022-09-15T21:58:08.403Z,9.40
2022-09-15T22:03:14.113Z,17.10
2022-09-15T22:08:19.492Z,10.93
2022-09-15T22:13:24.807Z,13.37
2022-09-15T22:18:30.231Z,8.23
2022-09-15T22:23:36.618Z,13.30
2022-09-15T22:28:42.148Z,13.97
2022-09-15T22:33:48.061Z,17.80
2022-09-15T22:38:54.354Z,16.33
2022-09-15T22:44:12.668Z,7.20
2022-09-15T22:49:18.011Z,7.93
2022-09-15T22:54:23.619Z,8.47
2022-09-15T22:59:28.907Z,8.67
2022-09-15T23:04:34.663Z,3.40
2022-09-15T23:09:40.493Z,8.83
2022-09-15T23:14:46.863Z,7.27
2022-09-15T23:19:52.110Z,3.80
2022-09-15T23:24:57.814Z,7.97
2022-09-15T23:30:02.963Z,2.63
2022-09-15T23:35:09.014Z,4.97
2022-09-15T23:40:14.835Z,7.97
2022-09-15T23:45:20.211Z,5.27
2022-09-15T23:50:26.678Z,8.30
2022-09-15T23:55:32.681Z,4.47
